Time;durP1;ratioP1;P1;durP2;ratioP2;P2;SDS_P1;SDS_P2;PMS_P1;PMS_P2;Temp;Humidity;BMP_temperature;BMP_pressure;BME280_temperature;BME280_humidity;BME280_pressure;Samples;Min_cycle;Max_cycle;Signal;HPM_P1;HPM_P2
2022/09/21 00:01:52;;;;;;;7.97;7.18;;;11.30;91.20;;;;;;5009764;28;20424;-67
2022/09/21 00:04:19;;;;;;;7.93;6.43;;;11.20;91.50;;;;;;5010212;28;20428;-67
2022/09/21 00:06:46;;;;;;;7.93;6.60;;;11.20;91.80;;;;;;5009940;28;20417;-67
2022/09/21 00:09:15;;;;;;;7.10;6.40;;;11.20;92.20;;;;;;5021887;28;21003;-66
2022/09/21 00:11:42;;;;;;;7.65;6.03;;;11.20;91.90;;;;;;5027998;28;20849;-67
2022/09/21 00:14:11;;;;;;;8.55;6.40;;;11.10;91.80;;;;;;5029515;28;20505;-68
2022/09/21 00:16:38;;;;;;;9.20;6.60;;;11.10;91.70;;;;;;5027536;28;20438;-67
2022/09/21 00:19:05;;;;;;;9.02;6.47;;;11.00;91.80;;;;;;5030254;28;20444;-67
2022/09/21 00:21:33;;;;;;;8.15;6.20;;;11.00;92.00;;;;;;5029400;28;20504;-66
2022/09/21 00:24:01;;;;;;;6.63;5.85;;;11.00;91.80;;;;;;5028826;28;20427;-66
2022/09/21 00:26:30;;;;;;;6.50;5.90;;;11.00;91.80;;;;;;5027070;28;20522;-68
2022/09/21 00:28:59;;;;;;;7.60;6.05;;;10.90;91.90;;;;;;5028753;28;20418;-67
2022/09/21 00:31:27;;;;;;;7.07;6.38;;;10.90;92.40;;;;;;5028651;28;20437;-67
2022/09/21 00:33:54;;;;;;;8.75;6.75;;;10.90;92.50;;;;;;5029017;28;20451;-67
2022/09/21 00:36:23;;;;;;;8.30;5.80;;;10.90;92.70;;;;;;5028754;28;20439;-67
2022/09/21 00:38:51;;;;;;;6.80;5.50;;;10.90;92.80;;;;;;5029084;28;20787;-67
2022/09/21 00:41:18;;;;;;;9.13;5.85;;;10.80;93.00;;;;;;5027499;28;20431;-67
2022/09/21 00:43:48;;;;;;;5.68;5.07;;;10.80;93.20;;;;;;5028080;28;20801;-67
2022/09/21 00:46:21;;;;;;;7.13;5.33;;;10.80;93.20;;;;;;5026729;28;20434;-67
2022/09/21 00:48:48;;;;;;;6.50;5.00;;;10.80;93.10;;;;;;5028686;28;20424;-67
2022/09/21 00:51:16;;;;;;;6.10;5.50;;;10.80;93.10;;;;;;5028823;28;20455;-67
2022/09/21 00:53:43;;;;;;;6.40;5.20;;;10.80;93.00;;;;;;5028659;28;20800;-67
2022/09/21 00:56:11;;;;;;;7.90;5.13;;;10.70;93.30;;;;;;5027586;28;20442;-67
2022/09/21 00:58:43;;;;;;;6.00;5.50;;;10.70;93.50;;;;;;5028228;28;20419;-67
2022/09/21 01:01:15;;;;;;;5.88;5.10;;;10.70;93.50;;;;;;5028120;28;21118;-67
2022/09/21 01:03:43;;;;;;;6.28;5.18;;;10.60;93.30;;;;;;5028575;28;20476;-67
2022/09/21 01:06:10;;;;;;;6.80;5.63;;;10.60;93.00;;;;;;5028036;28;20431;-68
2022/09/21 01:08:38;;;;;;;7.78;5.97;;;10.50;92.80;;;;;;5028844;28;20429;-67
2022/09/21 01:11:26;;;;;;;5.70;5.10;;;10.50;93.10;;;;;;5026913;28;20820;-69
2022/09/21 01:14:14;;;;;;;8.05;5.82;;;10.40;93.10;;;;;;5025438;28;20415;-67
2022/09/21 01:16:49;;;;;;;7.40;5.10;;;10.40;93.10;;;;;;5028892;28;20431;-67
2022/09/21 01:19:33;;;;;;;7.78;5.35;;;10.40;93.80;;;;;;5024401;28;20418;-67
2022/09/21 01:22:06;;;;;;;5.50;5.00;;;10.40;94.00;;;;;;5025938;28;20439;-67
2022/09/21 01:24:49;;;;;;;9.25;6.55;;;10.50;94.30;;;;;;5026936;28;20435;-67
2022/09/21 01:27:42;;;;;;;7.47;6.13;;;10.40;94.20;;;;;;5018670;28;20487;-67
2022/09/21 01:30:14;;;;;;;7.97;5.60;;;10.50;94.30;;;;;;5027710;28;20423;-66
2022/09/21 01:32:44;;;;;;;11.05;6.30;;;10.40;94.20;;;;;;5027990;28;20422;-67
2022/09/21 01:35:16;;;;;;;6.70;5.70;;;10.40;94.30;;;;;;5028187;28;20505;-67
2022/09/21 01:37:46;;;;;;;7.22;5.68;;;10.40;94.30;;;;;;5027532;28;20430;-67
2022/09/21 01:40:17;;;;;;;7.45;5.88;;;10.40;94.40;;;;;;5018276;28;20441;-66
2022/09/21 01:42:47;;;;;;;6.43;5.60;;;10.40;94.40;;;;;;5024317;28;20423;-67
2022/09/21 01:45:17;;;;;;;5.70;5.10;;;10.30;94.20;;;;;;5027518;28;20422;-67
2022/09/21 01:47:48;;;;;;;7.00;6.30;;;10.30;94.20;;;;;;5036197;28;20443;-67
2022/09/21 01:50:17;;;;;;;7.00;6.30;;;10.20;94.20;;;;;;5028222;28;20923;-67
2022/09/21 01:52:48;;;;;;;6.68;5.93;;;10.20;94.30;;;;;;5026817;28;20430;-67
2022/09/21 01:55:21;;;;;;;7.10;6.40;;;10.20;94.40;;;;;;5024799;28;20438;-67
2022/09/21 01:57:54;;;;;;;7.00;5.85;;;10.20;94.40;;;;;;5021535;28;20423;-67
2022/09/21 02:00:24;;;;;;;8.60;5.90;;;10.20;94.50;;;;;;5027694;28;20425;-67
2022/09/21 02:02:53;;;;;;;6.65;5.72;;;10.10;94.40;;;;;;5026855;28;20427;-67
2022/09/21 02:05:23;;;;;;;7.47;5.90;;;10.10;94.40;;;;;;5025322;28;20909;-67
2022/09/21 02:07:51;;;;;;;6.18;5.57;;;10.00;94.40;;;;;;5008103;28;20431;-67
2022/09/21 02:10:22;;;;;;;7.10;5.95;;;10.00;94.50;;;;;;5025502;28;20935;-66
2022/09/21 02:12:53;;;;;;;8.10;6.47;;;10.00;94.50;;;;;;5008086;28;20429;-67
2022/09/21 02:15:26;;;;;;;6.53;5.88;;;10.00;94.60;;;;;;5019196;28;20440;-66
2022/09/21 02:18:05;;;;;;;6.35;5.30;;;10.00;94.60;;;;;;5027797;28;20414;-66
2022/09/21 02:20:35;;;;;;;5.50;5.00;;;10.00;94.60;;;;;;5025669;28;20477;-67
2022/09/21 02:23:10;;;;;;;6.50;5.90;;;9.90;94.50;;;;;;5027690;28;20418;-67
2022/09/21 02:25:46;;;;;;;7.07;6.38;;;9.90;94.70;;;;;;5033616;28;20431;-67
2022/09/21 02:28:19;;;;;;;6.50;5.90;;;9.90;94.80;;;;;;5010835;28;20435;-67
2022/09/21 02:30:56;;;;;;;7.88;6.53;;;9.80;94.90;;;;;;5020489;28;20431;-66
2022/09/21 02:33:28;;;;;;;6.60;6.00;;;9.80;95.00;;;;;;5017421;28;20524;-69
2022/09/21 02:36:02;;;;;;;7.60;6.22;;;9.80;95.20;;;;;;5007278;28;20922;-67
2022/09/21 02:38:35;;;;;;;8.53;6.40;;;9.80;95.20;;;;;;5008258;28;20468;-67
2022/09/21 02:41:12;;;;;;;8.40;6.90;;;9.70;95.20;;;;;;5016120;28;20413;-67
2022/09/21 02:43:43;;;;;;;7.50;6.70;;;9.70;95.20;;;;;;5012282;28;20432;-66
2022/09/21 02:46:15;;;;;;;7.22;6.53;;;9.70;95.10;;;;;;5011858;28;20413;-67
2022/09/21 02:48:47;;;;;;;8.60;6.80;;;9.70;95.40;;;;;;5012625;28;20412;-67
2022/09/21 02:51:19;;;;;;;7.78;6.93;;;9.60;95.20;;;;;;5029553;28;20438;-70
2022/09/21 02:53:49;;;;;;;7.22;6.32;;;9.60;95.50;;;;;;5025558;28;20416;-67
2022/09/21 02:56:17;;;;;;;7.72;6.93;;;9.60;95.60;;;;;;5035318;28;20442;-67
2022/09/21 02:58:48;;;;;;;7.75;6.60;;;9.60;95.60;;;;;;5020537;28;20426;-67
2022/09/21 03:01:18;;;;;;;8.02;7.22;;;9.50;95.50;;;;;;5029819;28;20426;-67
2022/09/21 03:03:45;;;;;;;7.65;6.85;;;9.50;95.60;;;;;;5030665;28;20423;-69
2022/09/21 03:06:12;;;;;;;8.00;7.20;;;9.50;95.70;;;;;;5030403;28;20422;-69
2022/09/21 03:08:39;;;;;;;9.43;7.95;;;9.50;95.80;;;;;;5028181;28;20424;-69
2022/09/21 03:11:06;;;;;;;8.40;7.60;;;9.50;95.70;;;;;;5022241;28;20422;-69
2022/09/21 03:13:33;;;;;;;8.45;7.75;;;9.40;95.70;;;;;;5030803;28;20419;-69
2022/09/21 03:16:01;;;;;;;8.55;7.75;;;9.40;95.90;;;;;;5029703;28;20512;-68
2022/09/21 03:18:30;;;;;;;9.27;8.07;;;9.40;96.10;;;;;;5031490;28;20423;-70
2022/09/21 03:20:57;;;;;;;8.20;7.40;;;9.40;96.30;;;;;;5031082;28;20501;-69
2022/09/21 03:23:24;;;;;;;8.55;7.65;;;9.40;96.30;;;;;;5012517;28;20417;-69
2022/09/21 03:25:52;;;;;;;8.90;8.00;;;9.50;96.20;;;;;;5026838;28;20439;-69
2022/09/21 03:28:19;;;;;;;9.23;8.32;;;9.40;96.10;;;;;;5013845;28;20444;-69
2022/09/21 03:30:46;;;;;;;9.18;8.27;;;9.40;96.10;;;;;;5026282;28;20435;-69
2022/09/21 03:33:13;;;;;;;9.27;8.38;;;9.40;96.20;;;;;;5028789;28;20919;-68
2022/09/21 03:35:41;;;;;;;7.93;7.32;;;9.40;96.40;;;;;;5023082;28;20427;-67
2022/09/21 03:38:08;;;;;;;8.50;7.70;;;9.40;96.20;;;;;;5022255;28;20432;-66
2022/09/21 03:40:35;;;;;;;9.48;8.48;;;9.40;96.20;;;;;;5023228;28;20944;-66
2022/09/21 03:43:02;;;;;;;8.60;7.90;;;9.50;96.30;;;;;;5016996;28;20443;-70
2022/09/21 03:45:29;;;;;;;9.05;8.25;;;9.40;96.20;;;;;;5027523;28;20503;-67
2022/09/21 03:47:56;;;;;;;8.37;7.67;;;9.40;96.30;;;;;;5029122;28;20414;-67
2022/09/21 03:50:24;;;;;;;8.55;7.68;;;9.40;96.30;;;;;;5030675;28;20419;-67
2022/09/21 03:52:52;;;;;;;9.57;8.30;;;9.30;96.10;;;;;;5029161;28;20425;-67
2022/09/21 03:55:19;;;;;;;9.90;8.20;;;9.30;96.10;;;;;;5021270;28;20426;-67
2022/09/21 03:57:46;;;;;;;9.45;8.52;;;9.30;96.10;;;;;;5030096;28;20500;-67
2022/09/21 04:00:13;;;;;;;9.55;8.20;;;9.30;96.20;;;;;;5030151;28;20429;-69
2022/09/21 04:02:41;;;;;;;9.60;8.70;;;9.30;96.30;;;;;;5028853;28;20434;-67
2022/09/21 04:05:08;;;;;;;10.00;9.02;;;9.30;96.30;;;;;;5027774;28;20442;-70
2022/09/21 04:07:36;;;;;;;9.13;8.25;;;9.30;96.30;;;;;;5018536;28;22793;-69
2022/09/21 04:10:05;;;;;;;9.95;8.95;;;9.20;96.30;;;;;;5026336;28;20446;-69
2022/09/21 04:12:33;;;;;;;10.07;9.18;;;9.20;96.40;;;;;;5026092;28;20470;-70
2022/09/21 04:15:00;;;;;;;10.13;9.18;;;9.20;96.40;;;;;;5024188;28;20996;-68
2022/09/21 04:17:27;;;;;;;10.40;9.40;;;9.10;96.30;;;;;;5029032;28;20434;-70
2022/09/21 04:19:53;;;;;;;10.07;9.07;;;9.10;96.30;;;;;;5027988;28;21050;-67
2022/09/21 04:22:20;;;;;;;11.30;10.20;;;9.10;96.30;;;;;;5028876;28;21098;-69
2022/09/21 04:24:47;;;;;;;11.48;10.27;;;9.00;96.10;;;;;;5027093;28;20440;-69
2022/09/21 04:27:15;;;;;;;11.80;10.65;;;8.90;96.00;;;;;;5043012;22;20425;-67
2022/09/21 04:29:42;;;;;;;13.85;10.95;;;8.90;96.10;;;;;;5004890;28;20442;-67
2022/09/21 04:32:10;;;;;;;11.50;9.93;;;8.90;96.10;;;;;;4998255;28;20426;-68
2022/09/21 04:34:38;;;;;;;12.63;10.27;;;8.80;96.00;;;;;;5009449;28;20436;-67
2022/09/21 04:37:06;;;;;;;13.95;11.52;;;8.80;96.00;;;;;;5004796;28;20433;-68
2022/09/21 04:39:33;;;;;;;13.25;11.00;;;8.80;96.10;;;;;;5013164;28;20441;-67
2022/09/21 04:42:00;;;;;;;15.50;11.93;;;8.80;96.10;;;;;;5003335;28;20417;-69
2022/09/21 04:44:29;;;;;;;17.30;12.88;;;8.70;96.10;;;;;;5003832;28;20439;-68
2022/09/21 04:46:55;;;;;;;16.83;12.23;;;8.70;96.10;;;;;;5001412;28;20476;-68
2022/09/21 04:49:22;;;;;;;13.18;11.77;;;8.70;96.20;;;;;;4998953;28;20853;-69
2022/09/21 04:51:49;;;;;;;14.98;11.45;;;8.60;96.10;;;;;;5002258;28;21067;-67
2022/09/21 04:54:16;;;;;;;15.07;11.25;;;8.60;96.10;;;;;;4995712;28;20452;-68
2022/09/21 04:56:43;;;;;;;12.35;10.98;;;8.60;96.20;;;;;;5000653;28;20916;-69
2022/09/21 04:59:10;;;;;;;11.80;10.60;;;8.60;96.20;;;;;;5003286;28;20515;-69
2022/09/21 05:01:38;;;;;;;12.60;11.27;;;8.60;96.30;;;;;;4996965;28;21214;-69
2022/09/21 05:04:05;;;;;;;11.90;10.70;;;8.60;96.20;;;;;;5008009;28;20443;-69
2022/09/21 05:06:33;;;;;;;11.65;10.50;;;8.60;96.20;;;;;;5005661;28;20424;-69
2022/09/21 05:11:45;;;;;;;11.50;10.30;;;8.50;96.10;;;;;;5002447;28;20420;-69
2022/09/21 05:14:12;;;;;;;11.37;10.30;;;8.50;96.10;;;;;;5004124;28;20425;-69
2022/09/21 05:16:40;;;;;;;11.60;10.50;;;8.50;96.10;;;;;;4990284;28;20445;-69
2022/09/21 05:19:07;;;;;;;10.85;9.73;;;8.40;96.10;;;;;;5004585;28;20432;-68
2022/09/21 05:21:35;;;;;;;11.60;10.43;;;8.40;96.20;;;;;;5000776;28;20456;-68
2022/09/21 05:24:02;;;;;;;10.40;9.60;;;8.40;96.40;;;;;;5004833;28;20482;-69
2022/09/21 05:26:29;;;;;;;11.20;10.10;;;8.40;96.30;;;;;;5005208;28;20444;-69
2022/09/21 05:28:56;;;;;;;10.55;9.65;;;8.40;96.30;;;;;;5004275;28;20515;-69
2022/09/21 05:31:35;;;;;;;11.02;9.93;;;8.40;96.40;;;;;;4998548;28;20451;-69
2022/09/21 05:34:12;;;;;;;10.52;9.50;;;8.40;96.40;;;;;;5004181;28;20465;-69
2022/09/21 05:36:49;;;;;;;10.40;9.40;;;8.40;96.40;;;;;;5003819;28;20564;-69
2022/09/21 05:39:17;;;;;;;11.23;10.13;;;8.40;96.30;;;;;;5004490;28;20542;-68
2022/09/21 05:41:44;;;;;;;11.55;10.45;;;8.40;96.30;;;;;;5009063;28;20435;-68
2022/09/21 05:44:14;;;;;;;12.40;11.20;;;8.40;96.40;;;;;;5017150;28;20501;-68
2022/09/21 05:46:43;;;;;;;12.13;11.02;;;8.30;96.50;;;;;;4991196;28;20424;-69
2022/09/21 05:49:18;;;;;;;12.77;11.57;;;8.40;96.60;;;;;;5002429;28;20424;-69
2022/09/21 05:51:56;;;;;;;12.90;11.80;;;8.40;96.80;;;;;;5003081;28;20625;-68
2022/09/21 05:54:32;;;;;;;13.40;12.10;;;8.50;97.30;;;;;;5004209;28;20480;-68
2022/09/21 05:57:08;;;;;;;13.40;12.20;;;8.50;96.90;;;;;;5006082;28;20474;-68
2022/09/21 05:59:56;;;;;;;12.88;11.75;;;8.50;97.00;;;;;;5023061;28;20430;-69
2022/09/21 06:02:43;;;;;;;13.20;11.90;;;8.60;97.00;;;;;;5006302;28;20888;-69
2022/09/21 06:05:13;;;;;;;13.40;12.10;;;8.60;96.90;;;;;;5003768;28;20440;-69
2022/09/21 06:07:41;;;;;;;16.23;14.55;;;8.60;97.00;;;;;;5000346;28;21067;-70
2022/09/21 06:10:09;;;;;;;15.13;13.38;;;8.70;97.50;;;;;;5002084;28;20463;-69
2022/09/21 06:12:36;;;;;;;14.40;13.00;;;8.80;97.10;;;;;;5011520;28;20423;-69
2022/09/21 06:15:03;;;;;;;15.00;13.17;;;8.80;96.80;;;;;;5015282;28;20726;-69
2022/09/21 06:17:30;;;;;;;14.30;12.82;;;8.80;96.40;;;;;;5004342;28;20432;-69
2022/09/21 06:19:57;;;;;;;13.80;12.50;;;8.80;96.30;;;;;;5008431;28;20517;-68
2022/09/21 06:22:25;;;;;;;13.10;12.00;;;8.80;96.40;;;;;;5003126;28;20444;-69
2022/09/21 06:24:52;;;;;;;13.57;12.27;;;8.80;96.10;;;;;;5019427;28;20431;-69
2022/09/21 06:27:19;;;;;;;13.73;12.43;;;8.90;96.00;;;;;;5010704;28;20549;-69
2022/09/21 06:29:45;;;;;;;13.93;12.63;;;8.90;96.00;;;;;;5008132;28;20769;-68
2022/09/21 06:32:12;;;;;;;14.43;13.13;;;8.90;96.10;;;;;;5004871;28;20448;-69
2022/09/21 06:34:39;;;;;;;13.20;11.90;;;9.00;96.10;;;;;;5019701;28;20828;-69
2022/09/21 06:37:06;;;;;;;13.00;11.77;;;9.00;95.90;;;;;;5007536;28;20458;-69
2022/09/21 06:39:34;;;;;;;12.53;11.40;;;9.10;96.10;;;;;;5020027;28;20484;-69
2022/09/21 06:42:01;;;;;;;12.00;10.90;;;9.20;95.80;;;;;;5004501;28;20436;-70
2022/09/21 06:44:28;;;;;;;13.10;10.30;;;9.30;95.80;;;;;;5008093;28;20480;-69
2022/09/21 06:46:55;;;;;;;11.38;10.23;;;9.30;95.30;;;;;;5004521;28;20420;-69
2022/09/21 06:49:22;;;;;;;11.55;10.45;;;9.30;94.60;;;;;;5004439;28;20462;-69
2022/09/21 06:51:49;;;;;;;11.65;10.40;;;9.40;94.60;;;;;;5017962;28;20422;-69
2022/09/21 06:54:17;;;;;;;12.25;11.05;;;9.50;94.30;;;;;;5027097;28;20419;-69
2022/09/21 06:56:45;;;;;;;12.23;11.02;;;9.50;94.00;;;;;;5013628;28;20443;-69
2022/09/21 06:59:12;;;;;;;12.23;11.13;;;9.60;94.00;;;;;;5010194;28;20449;-68
2022/09/21 07:01:39;;;;;;;12.20;11.00;;;9.70;93.90;;;;;;5025118;28;20426;-69
2022/09/21 07:04:08;;;;;;;14.40;11.60;;;9.70;93.50;;;;;;5013719;28;20419;-69
2022/09/21 07:06:35;;;;;;;12.30;11.05;;;9.70;93.50;;;;;;5002372;28;20464;-68
2022/09/21 07:09:01;;;;;;;12.33;10.97;;;9.70;93.50;;;;;;5010359;28;20540;-69
2022/09/21 07:11:28;;;;;;;11.45;10.30;;;9.70;93.50;;;;;;5006191;28;20484;-68
2022/09/21 07:13:57;;;;;;;11.80;10.80;;;9.70;93.40;;;;;;5007180;28;20910;-69
2022/09/21 07:16:24;;;;;;;13.07;11.90;;;9.70;93.70;;;;;;5000425;28;20440;-69
2022/09/21 07:18:51;;;;;;;13.10;11.80;;;9.70;93.50;;;;;;5004989;28;20428;-69
2022/09/21 07:21:17;;;;;;;14.27;11.80;;;9.80;93.40;;;;;;5014352;28;20425;-69
2022/09/21 07:23:44;;;;;;;14.40;13.00;;;9.90;92.80;;;;;;5007894;28;20425;-68
2022/09/21 07:26:13;;;;;;;12.98;11.77;;;9.80;92.80;;;;;;5020077;28;21050;-69
2022/09/21 07:28:40;;;;;;;16.05;13.70;;;9.90;92.70;;;;;;5011029;28;20427;-69
2022/09/21 07:31:10;;;;;;;14.37;12.97;;;9.90;92.90;;;;;;5005624;28;20453;-69
2022/09/21 07:33:37;;;;;;;14.55;13.35;;;10.00;93.20;;;;;;5005341;28;20446;-69
2022/09/21 07:36:09;;;;;;;14.07;12.87;;;10.00;93.10;;;;;;5016718;28;20434;-69
2022/09/21 07:38:37;;;;;;;15.30;13.80;;;10.00;92.70;;;;;;5003407;28;20519;-69
2022/09/21 07:41:04;;;;;;;14.60;13.30;;;10.00;92.70;;;;;;5010560;28;20425;-69
2022/09/21 07:43:31;;;;;;;15.18;13.77;;;10.10;92.90;;;;;;5004521;28;20451;-68
2022/09/21 07:45:57;;;;;;;15.45;14.15;;;10.10;92.60;;;;;;5006199;28;20884;-69
2022/09/21 07:48:26;;;;;;;15.40;14.00;;;10.10;92.60;;;;;;5003362;28;20512;-69
2022/09/21 07:50:53;;;;;;;15.27;13.82;;;10.00;93.00;;;;;;5009912;28;21157;-69
2022/09/21 07:53:20;;;;;;;17.97;16.27;;;10.10;93.10;;;;;;5006286;28;20494;-69
2022/09/21 07:55:47;;;;;;;19.10;17.40;;;10.20;93.10;;;;;;5005969;28;20504;-69
2022/09/21 08:00:58;;;;;;;18.00;16.40;;;10.20;92.90;;;;;;5004981;28;20401;-69
2022/09/21 08:03:26;;;;;;;18.23;16.45;;;10.50;93.00;;;;;;5013597;28;20465;-69
2022/09/21 08:05:53;;;;;;;15.70;14.57;;;10.80;92.20;;;;;;5009712;28;20490;-69
2022/09/21 08:08:20;;;;;;;16.07;14.67;;;11.10;91.30;;;;;;5006705;28;20861;-69
2022/09/21 08:10:46;;;;;;;16.20;14.80;;;11.50;90.40;;;;;;5019356;28;20518;-69
2022/09/21 08:13:13;;;;;;;15.10;13.90;;;11.90;89.70;;;;;;5004569;28;20516;-69
2022/09/21 08:15:40;;;;;;;14.63;13.23;;;12.10;86.70;;;;;;5007330;28;20525;-69
2022/09/21 08:18:07;;;;;;;13.00;11.90;;;12.30;85.60;;;;;;5004578;28;20905;-69
2022/09/21 08:20:35;;;;;;;13.50;12.30;;;12.60;82.80;;;;;;5005067;28;20464;-69
2022/09/21 08:23:03;;;;;;;13.70;12.30;;;12.50;82.90;;;;;;4999504;28;20443;-69
2022/09/21 08:25:30;;;;;;;15.38;13.88;;;12.70;82.80;;;;;;5008768;28;20419;-69
2022/09/21 08:28:00;;;;;;;12.98;11.68;;;12.90;82.70;;;;;;5012363;28;20448;-69
2022/09/21 08:30:29;;;;;;;12.13;10.93;;;13.20;81.20;;;;;;5005788;28;21000;-69
2022/09/21 08:32:56;;;;;;;11.52;10.63;;;13.30;78.50;;;;;;5005427;28;20421;-69
2022/09/21 08:35:23;;;;;;;11.80;10.90;;;13.50;78.10;;;;;;5019202;28;20421;-69
2022/09/21 08:37:53;;;;;;;12.27;11.37;;;13.60;77.50;;;;;;5002092;28;20438;-69
2022/09/21 08:40:20;;;;;;;12.02;11.02;;;13.70;77.30;;;;;;5008453;28;20415;-69
2022/09/21 08:42:57;;;;;;;11.60;10.80;;;13.90;76.50;;;;;;5003580;28;20436;-69
2022/09/21 08:45:30;;;;;;;11.60;10.73;;;14.20;75.80;;;;;;5004977;28;20434;-69
2022/09/21 08:48:00;;;;;;;12.57;11.38;;;14.40;75.40;;;;;;4999795;28;20452;-70
2022/09/21 08:50:32;;;;;;;12.40;11.25;;;14.60;74.30;;;;;;5000851;28;20901;-70
2022/09/21 08:53:05;;;;;;;11.70;10.70;;;14.80;73.30;;;;;;5005223;28;20435;-70
2022/09/21 08:55:32;;;;;;;11.13;10.13;;;15.10;72.30;;;;;;5004270;28;20424;-69
2022/09/21 08:57:59;;;;;;;11.30;10.30;;;15.30;72.00;;;;;;5014010;28;20433;-69
2022/09/21 09:00:26;;;;;;;10.55;9.65;;;15.50;70.30;;;;;;5010907;28;20437;-69
2022/09/21 09:03:23;;;;;;;10.80;9.90;;;15.60;68.60;;;;;;5007611;28;20456;-69
2022/09/21 09:05:54;;;;;;;10.15;9.25;;;15.80;67.90;;;;;;5020158;28;20534;-70
2022/09/21 09:08:41;;;;;;;11.85;9.93;;;15.90;68.10;;;;;;5014561;28;20432;-69
2022/09/21 09:11:19;;;;;;;9.98;9.07;;;15.90;67.60;;;;;;5009647;28;20411;-69
2022/09/21 09:14:06;;;;;;;9.77;8.88;;;15.90;67.30;;;;;;5013209;28;20440;-69
2022/09/21 09:16:41;;;;;;;9.95;9.05;;;16.00;66.80;;;;;;5006728;28;20429;-69
2022/09/21 09:19:17;;;;;;;11.00;10.00;;;16.10;66.30;;;;;;5005074;28;20436;-69
2022/09/21 09:21:46;;;;;;;10.82;9.80;;;16.30;66.70;;;;;;4997519;28;20432;-69
2022/09/21 09:24:19;;;;;;;10.40;9.50;;;16.30;66.00;;;;;;4999688;28;20425;-69
2022/09/21 09:26:52;;;;;;;10.07;9.23;;;16.50;66.10;;;;;;5004411;28;20569;-69
2022/09/21 09:29:26;;;;;;;10.30;9.40;;;16.70;65.10;;;;;;5007464;28;20454;-69
2022/09/21 09:31:54;;;;;;;10.50;9.60;;;16.90;64.70;;;;;;5005635;28;20416;-70
2022/09/21 09:34:28;;;;;;;10.20;9.30;;;17.00;65.00;;;;;;5015616;28;20458;-70
2022/09/21 09:36:58;;;;;;;10.02;9.23;;;17.20;64.40;;;;;;5025324;28;20423;-69
2022/09/21 09:39:29;;;;;;;9.50;8.70;;;17.30;63.40;;;;;;5007002;28;20551;-70
2022/09/21 09:42:20;;;;;;;9.70;8.80;;;17.50;62.70;;;;;;5012092;28;20419;-69
2022/09/21 09:45:03;;;;;;;11.02;9.95;;;17.80;62.10;;;;;;5005507;28;20526;-69
2022/09/21 09:47:41;;;;;;;9.07;8.27;;;18.10;60.30;;;;;;5005169;28;20794;-70
2022/09/21 09:50:13;;;;;;;8.65;7.80;;;18.40;58.70;;;;;;5000087;28;20447;-70
2022/09/21 09:52:40;;;;;;;8.30;7.53;;;18.60;58.00;;;;;;5017453;28;20491;-70
2022/09/21 09:55:19;;;;;;;7.80;7.10;;;18.70;57.60;;;;;;5025903;28;20430;-69
2022/09/21 09:57:46;;;;;;;7.80;7.00;;;18.60;57.40;;;;;;5013764;28;20428;-70
2022/09/21 10:00:15;;;;;;;7.20;6.50;;;18.70;57.10;;;;;;5008233;28;20435;-70
2022/09/21 10:02:50;;;;;;;7.37;5.83;;;18.90;55.50;;;;;;5009139;28;20849;-70
2022/09/21 10:05:23;;;;;;;7.47;6.78;;;19.00;55.50;;;;;;5015809;28;20433;-69
2022/09/21 10:07:50;;;;;;;6.55;5.95;;;19.10;54.40;;;;;;5003744;28;20432;-70
2022/09/21 10:10:32;;;;;;;6.38;5.78;;;18.80;54.80;;;;;;5006112;28;20472;-69
2022/09/21 10:13:10;;;;;;;6.80;5.65;;;19.00;54.70;;;;;;5002963;28;20482;-69
2022/09/21 10:15:42;;;;;;;5.97;5.35;;;19.50;53.90;;;;;;5006047;28;20924;-69
2022/09/21 10:18:18;;;;;;;5.60;5.00;;;19.80;51.70;;;;;;5004124;28;20424;-70
2022/09/21 10:20:57;;;;;;;5.78;5.28;;;20.00;52.10;;;;;;5008094;28;20459;-69
2022/09/21 10:23:25;;;;;;;6.03;4.32;;;20.30;50.80;;;;;;5006565;28;20443;-69
2022/09/21 10:26:00;;;;;;;5.40;4.07;;;20.10;48.90;;;;;;4999858;28;20451;-69
2022/09/21 10:28:27;;;;;;;8.15;4.10;;;20.00;50.00;;;;;;5039729;22;21338;-70
2022/09/21 10:31:10;;;;;;;5.90;3.87;;;19.90;49.70;;;;;;5050344;28;20470;-70
2022/09/21 10:33:48;;;;;;;6.72;4.70;;;19.80;48.70;;;;;;5080431;22;20442;-69
2022/09/21 10:36:30;;;;;;;4.80;3.90;;;19.90;49.40;;;;;;5087536;28;20402;-70
2022/09/21 10:39:20;;;;;;;5.25;3.60;;;20.00;48.90;;;;;;5079567;28;20916;-70
2022/09/21 10:42:00;;;;;;;6.15;3.08;;;20.30;48.50;;;;;;5080435;28;20437;-70
2022/09/21 10:44:34;;;;;;;3.60;2.90;;;20.60;45.80;;;;;;5086216;28;21031;-70
2022/09/21 10:47:13;;;;;;;4.00;2.40;;;20.90;45.50;;;;;;5087484;28;20783;-70
2022/09/21 10:49:45;;;;;;;4.20;2.53;;;21.00;44.70;;;;;;5081747;28;20425;-69
2022/09/21 10:52:11;;;;;;;3.90;3.30;;;21.10;44.30;;;;;;5084755;28;20418;-69
2022/09/21 10:54:41;;;;;;;3.57;2.67;;;21.30;45.30;;;;;;5076089;28;20888;-69
2022/09/21 10:57:16;;;;;;;2.45;1.98;;;21.70;43.90;;;;;;5086853;28;20425;-69
2022/09/21 10:59:43;;;;;;;3.40;2.28;;;21.70;43.90;;;;;;5074145;28;20434;-69
2022/09/21 11:02:28;;;;;;;3.70;2.20;;;22.00;41.60;;;;;;5071398;28;20438;-69
2022/09/21 11:04:58;;;;;;;4.47;3.88;;;22.30;41.90;;;;;;5090982;28;20895;-69
2022/09/21 11:07:31;;;;;;;4.50;2.28;;;22.60;40.70;;;;;;5075965;28;20433;-69
2022/09/21 11:10:04;;;;;;;3.70;2.50;;;22.50;40.70;;;;;;5085332;28;20448;-69
2022/09/21 11:12:42;;;;;;;3.85;2.10;;;22.40;41.50;;;;;;5087328;28;20833;-68
2022/09/21 11:15:20;;;;;;;3.20;2.13;;;22.60;41.70;;;;;;5087563;28;20409;-68
2022/09/21 11:17:53;;;;;;;4.70;1.80;;;22.60;41.10;;;;;;5085155;28;21018;-68
2022/09/21 11:20:26;;;;;;;4.53;2.00;;;22.50;40.90;;;;;;5090368;28;20422;-68
2022/09/21 11:23:03;;;;;;;3.17;2.13;;;22.70;40.20;;;;;;5091117;28;20923;-68
2022/09/21 11:25:37;;;;;;;2.30;1.70;;;22.80;40.20;;;;;;5088431;28;20913;-68
2022/09/21 11:28:13;;;;;;;2.80;2.00;;;22.90;40.80;;;;;;5083930;28;20429;-68
2022/09/21 11:30:52;;;;;;;4.70;2.10;;;23.00;40.20;;;;;;5077716;28;20412;-68
2022/09/21 11:33:33;;;;;;;4.35;1.70;;;23.00;39.60;;;;;;5084646;28;20562;-68
2022/09/21 11:36:05;;;;;;;3.60;1.90;;;22.80;39.70;;;;;;5082106;28;21116;-68
2022/09/21 11:38:42;;;;;;;3.80;2.20;;;22.70;40.50;;;;;;5086798;28;20900;-67
2022/09/21 11:41:23;;;;;;;3.25;1.83;;;22.60;40.80;;;;;;5090469;28;20421;-67
2022/09/21 11:44:10;;;;;;;2.85;1.55;;;22.60;40.20;;;;;;5080761;28;20438;-67
2022/09/21 11:46:45;;;;;;;2.10;1.70;;;22.70;39.70;;;;;;5086508;28;20425;-67
2022/09/21 11:49:39;;;;;;;2.70;1.70;;;22.90;39.70;;;;;;5090023;28;20453;-68
2022/09/21 11:52:21;;;;;;;2.90;2.00;;;23.00;39.70;;;;;;5078232;28;20417;-69
2022/09/21 11:55:13;;;;;;;2.40;1.40;;;23.10;39.90;;;;;;5089369;28;20428;-68
2022/09/21 11:57:44;;;;;;;3.08;1.60;;;23.20;37.90;;;;;;5083362;28;20410;-68
2022/09/21 12:00:16;;;;;;;3.58;1.80;;;23.50;38.00;;;;;;5081239;28;20421;-67
2022/09/21 12:03:16;;;;;;;2.90;1.60;;;23.10;38.00;;;;;;5086523;28;20431;-67
2022/09/21 12:05:51;;;;;;;4.00;2.30;;;22.90;38.30;;;;;;5082447;28;20414;-68
2022/09/21 12:08:41;;;;;;;2.53;1.38;;;23.00;37.80;;;;;;5089672;28;20501;-67
2022/09/21 12:11:16;;;;;;;4.10;1.05;;;23.00;37.90;;;;;;5088957;28;20410;-68
2022/09/21 12:13:50;;;;;;;3.35;1.45;;;23.10;38.00;;;;;;5077078;28;20431;-68
2022/09/21 12:16:29;;;;;;;4.53;1.70;;;23.20;37.50;;;;;;5083657;28;20428;-68
2022/09/21 12:19:03;;;;;;;1.90;1.30;;;23.40;38.50;;;;;;5089368;28;20426;-68
2022/09/21 12:21:34;;;;;;;2.40;1.20;;;23.60;39.00;;;;;;5089402;28;20491;-68
2022/09/21 12:24:04;;;;;;;2.37;1.20;;;23.90;38.90;;;;;;5083443;28;20426;-69
2022/09/21 12:26:37;;;;;;;2.67;1.58;;;24.30;37.70;;;;;;5077119;28;20800;-68
2022/09/21 12:29:10;;;;;;;2.25;1.17;;;24.60;35.50;;;;;;5088918;28;20852;-69
2022/09/21 12:31:43;;;;;;;3.05;1.27;;;24.90;35.40;;;;;;5078787;28;20430;-68
2022/09/21 12:34:15;;;;;;;1.90;1.10;;;24.70;35.90;;;;;;5089240;28;20421;-69
2022/09/21 12:36:47;;;;;;;2.80;1.30;;;24.50;35.00;;;;;;5088899;28;20931;-68
2022/09/21 12:39:20;;;;;;;2.53;1.30;;;24.40;34.60;;;;;;5088106;28;20426;-69
2022/09/21 12:41:52;;;;;;;3.50;1.30;;;24.40;35.50;;;;;;5086311;28;20907;-69
2022/09/21 12:44:25;;;;;;;2.10;1.20;;;24.40;33.10;;;;;;5087743;28;20426;-68
2022/09/21 12:47:08;;;;;;;2.45;1.02;;;24.50;35.10;;;;;;5080058;28;20414;-68
2022/09/21 12:49:39;;;;;;;2.70;1.17;;;25.30;34.00;;;;;;5088424;28;20471;-69
2022/09/21 12:52:07;;;;;;;3.30;1.30;;;26.10;33.20;;;;;;5080933;28;20433;-68
2022/09/21 12:54:44;;;;;;;2.70;1.20;;;26.20;32.10;;;;;;5085092;28;20502;-69
2022/09/21 12:57:23;;;;;;;2.80;1.20;;;25.90;32.00;;;;;;5089448;28;20467;-68
2022/09/21 12:59:59;;;;;;;2.47;1.20;;;25.40;32.50;;;;;;5088877;28;20493;-69
2022/09/21 13:02:34;;;;;;;2.80;0.95;;;25.20;32.20;;;;;;5082623;28;20452;-69
2022/09/21 13:05:08;;;;;;;2.03;1.30;;;24.90;32.00;;;;;;5088959;28;20417;-68
2022/09/21 13:07:54;;;;;;;2.22;1.20;;;25.00;32.50;;;;;;5088866;28;20466;-68
2022/09/21 13:10:30;;;;;;;2.10;0.88;;;24.80;31.70;;;;;;5080907;28;21253;-68